Bemidji Regional Airport Bemidji US
ICAO: KBJI
IATA: BJI
Category: Medium
Scheduled Services: No

Elevation: 1391 ft
TransAlt. 18000 ft.

Airport Communications:
AWOS 3:119.275
MINNEAPOLIS CNTR:134.75
PRINCETON RDO:123.6
CTAF/UNICOM:122.8

KBJI Zoom In..

Runways:

(A) RW 07 length 5700 ft width 150 ft
---- / hdg 70

(B) RW 13 length 7004 ft width 150 ft
---- / hdg 130

(C) RW 25 length 5700 ft width 150 ft
ILS 109.35 / hdg 250

(D) RW 31 length 7004 ft width 150 ft
ILS 111.90 / hdg 310

Location; KBJI
Day. 19 / Time. 21.15 Zulu
* Altimeter: 29.80
* Temperature: 20° c. 68°f.
* Wind from: 250° Speed 04 kn.
Dewpoint: 17° c.
Visibility: 10 Statute Miles.
Clouds: Overcast 7500 ft.

KBJI 192115Z AUTO 25004KT 10SM OVC075 20/17 A2980 RMK AO2 T02030171


Wind From 250°
Speed 04 kn.

 
 
jpsmedia.com for Web Design worldairports.se 2018   terms of use